Time;durP1;ratioP1;P1;durP2;ratioP2;P2;SDS_P1;SDS_P2;PMS_P1;PMS_P2;Temp;Humidity;BMP_temperature;BMP_pressure;BME280_temperature;BME280_humidity;BME280_pressure;Samples;Min_cycle;Max_cycle;Signal;HPM_P1;HPM_P2
2023/03/08 00:01:54;;;;;;;39.10;35.70;;;;;;;21.50;30.62;94219.56;6163272;28;109014;-66
2023/03/08 00:04:58;;;;;;;43.23;39.53;;;;;;;21.44;30.65;94210.22;6163382;28;108957;-66
2023/03/08 00:08:01;;;;;;;41.43;37.73;;;;;;;21.49;30.91;94212.66;6152003;28;108867;-65
2023/03/08 00:11:05;;;;;;;47.83;43.60;;;;;;;21.49;30.70;94217.22;6163202;28;109134;-66
2023/03/08 00:14:10;;;;;;;45.60;41.40;;;;;;;21.47;30.77;94220.19;6163519;28;109776;-66
2023/03/08 00:17:13;;;;;;;44.50;40.37;;;;;;;21.20;31.03;94184.19;6132822;28;109038;-66
2023/03/08 00:20:16;;;;;;;44.73;40.73;;;;;;;21.49;30.84;94212.66;6163639;28;109401;-67
2023/03/08 00:23:19;;;;;;;43.60;39.70;;;;;;;21.49;30.45;94212.66;6162988;28;110100;-67
2023/03/08 00:26:23;;;;;;;44.63;40.50;;;;;;;21.50;30.87;94211.56;6161986;28;108952;-66
2023/03/08 00:29:27;;;;;;;45.83;41.80;;;;;;;21.50;31.00;94222.22;6152159;28;109974;-66
2023/03/08 00:32:30;;;;;;;44.03;40.13;;;;;;;21.50;31.13;94214.22;6162484;28;109190;-66
2023/03/08 00:35:34;;;;;;;42.70;39.00;;;;;;;21.50;30.95;94216.91;6158705;28;108910;-66
2023/03/08 00:38:37;;;;;;;43.50;39.60;;;;;;;21.47;30.99;94216.75;6152398;28;111356;-66
2023/03/08 00:41:40;;;;;;;43.67;39.87;;;;;;;21.45;31.03;94206.44;6152704;28;109251;-67
2023/03/08 00:44:45;;;;;;;42.90;39.20;;;;;;;21.49;30.75;94212.66;6162829;28;109138;-67
2023/03/08 00:47:48;;;;;;;55.07;50.27;;;;;;;21.49;30.86;94220.66;6151400;28;109211;-66
2023/03/08 00:50:52;;;;;;;44.37;40.50;;;;;;;21.49;30.86;94217.22;6133770;28;109151;-67
2023/03/08 00:53:55;;;;;;;45.93;41.83;;;;;;;21.48;30.88;94203.13;6147895;28;110927;-66
2023/03/08 00:56:58;;;;;;;57.00;52.00;;;;;;;21.49;31.04;94204.69;6153370;28;110158;-67
2023/03/08 01:00:07;;;;;;;43.40;39.50;;;;;;;21.42;30.93;94198.31;6145744;28;109886;-72
2023/03/08 01:03:10;;;;;;;45.63;41.40;;;;;;;21.44;31.44;94204.88;6152286;22;112021;-61
2023/03/08 01:06:14;;;;;;;45.10;40.97;;;;;;;21.47;30.96;94203.47;6159077;28;109624;-61
2023/03/08 01:09:18;;;;;;;43.10;39.40;;;;;;;21.47;30.90;94212.22;6147014;28;108985;-61
2023/03/08 01:12:22;;;;;;;42.63;38.70;;;;;;;21.44;30.91;94212.09;6145895;28;110218;-61
2023/03/08 01:15:27;;;;;;;41.70;37.80;;;;;;;21.45;31.39;94219.75;6141527;28;109638;-61
2023/03/08 01:18:30;;;;;;;42.50;38.87;;;;;;;21.37;30.87;94201.97;6158208;28;109116;-61
2023/03/08 01:21:33;;;;;;;42.50;38.80;;;;;;;21.45;31.21;94213.66;6161707;28;110059;-62
2023/03/08 01:24:36;;;;;;;40.23;36.53;;;;;;;21.44;30.80;94223.50;6158913;28;110417;-59
2023/03/08 01:27:39;;;;;;;39.53;35.93;;;;;;;21.43;31.17;94224.63;6154460;28;109808;-59
2023/03/08 01:30:44;;;;;;;40.40;36.80;;;;;;;21.42;30.92;94217.72;6161717;28;109212;-61
2023/03/08 01:33:49;;;;;;;37.70;34.40;;;;;;;21.44;30.75;94215.53;6161922;28;109045;-60
2023/03/08 01:36:52;;;;;;;36.90;33.70;;;;;;;21.30;30.83;94187.56;6150956;28;109886;-61
2023/03/08 01:39:55;;;;;;;37.77;34.40;;;;;;;21.35;30.95;94206.03;6145802;28;110212;-60
2023/03/08 01:42:58;;;;;;;36.37;33.10;;;;;;;21.43;30.71;94235.25;6142279;28;110620;-60
2023/03/08 01:46:11;;;;;;;33.70;30.73;;;;;;;21.42;31.31;94223.06;6148692;28;109034;-61
2023/03/08 01:49:17;;;;;;;35.97;32.67;;;;;;;21.41;31.26;94237.47;6135627;28;109620;-60
2023/03/08 01:52:26;;;;;;;35.00;31.93;;;;;;;21.41;31.13;94228.69;6148505;28;110075;-60
2023/03/08 01:55:29;;;;;;;34.53;31.43;;;;;;;21.41;30.98;94218.84;6161133;28;109373;-60
2023/03/08 01:58:32;;;;;;;33.53;30.43;;;;;;;21.42;31.16;94211.63;6159450;28;109784;-60
2023/03/08 02:01:37;;;;;;;32.60;29.60;;;;;;;21.41;30.87;94229.47;6151361;28;109110;-60
2023/03/08 02:04:41;;;;;;;30.80;28.20;;;;;;;21.41;31.01;94232.16;6137044;28;109118;-61
2023/03/08 02:07:44;;;;;;;31.27;28.57;;;;;;;21.41;31.14;94232.16;6136584;28;110286;-61
2023/03/08 02:10:49;;;;;;;31.20;28.40;;;;;;;21.34;30.91;94210.59;6137702;28;109063;-59
2023/03/08 02:13:54;;;;;;;29.30;26.80;;;;;;;21.41;31.30;94226.03;6142892;28;110599;-61
2023/03/08 02:16:59;;;;;;;30.13;27.53;;;;;;;21.41;30.81;94232.16;6134073;28;110653;-61
2023/03/08 02:20:11;;;;;;;29.30;26.80;;;;;;;21.29;30.89;94208.09;6124121;28;108801;-61
2023/03/08 02:23:20;;;;;;;27.77;25.40;;;;;;;21.40;30.97;94224.47;6126098;28;109124;-61
2023/03/08 02:26:23;;;;;;;28.43;25.93;;;;;;;21.40;30.85;94225.25;6136553;28;109193;-61
2023/03/08 02:29:26;;;;;;;26.57;24.27;;;;;;;21.39;30.85;94221.03;6136245;28;109115;-61
2023/03/08 02:32:29;;;;;;;24.90;22.73;;;;;;;21.39;31.19;94215.72;6136841;28;109374;-61
2023/03/08 02:35:33;;;;;;;26.07;23.77;;;;;;;21.39;31.22;94223.69;6125483;28;109089;-61
2023/03/08 02:38:38;;;;;;;24.13;22.07;;;;;;;21.40;30.99;94227.94;6138193;28;110364;-61
2023/03/08 02:41:41;;;;;;;23.10;21.07;;;;;;;21.39;30.91;94234.34;6136732;28;109298;-61
2023/03/08 02:44:44;;;;;;;23.30;21.30;;;;;;;21.34;31.09;94231.88;6137372;28;109797;-61
2023/03/08 02:47:47;;;;;;;23.97;21.77;;;;;;;21.39;30.94;94241.56;6149536;28;110668;-61
2023/03/08 02:50:51;;;;;;;22.20;20.30;;;;;;;21.38;31.20;94240.78;6136716;28;109050;-60
2023/03/08 02:53:55;;;;;;;26.83;24.53;;;;;;;21.37;31.12;94236.56;6136701;28;109644;-61
2023/03/08 02:56:58;;;;;;;23.57;21.50;;;;;;;21.37;30.66;94255.19;6124733;28;110909;-59
2023/03/08 03:00:02;;;;;;;21.53;19.63;;;;;;;21.38;30.94;94247.97;6136258;28;109181;-61
2023/03/08 03:03:05;;;;;;;22.30;20.30;;;;;;;21.35;30.93;94257.38;6121636;28;110336;-61
2023/03/08 03:06:14;;;;;;;21.13;19.03;;;;;;;21.36;30.86;94245.63;6144712;28;109716;-60
2023/03/08 03:09:19;;;;;;;22.10;20.30;;;;;;;21.37;30.85;94252.53;6123058;28;109327;-61
2023/03/08 03:12:22;;;;;;;21.50;19.70;;;;;;;21.37;30.67;94268.50;6136247;28;109119;-60
2023/03/08 03:15:25;;;;;;;21.07;19.27;;;;;;;21.38;31.18;94247.97;6141667;28;109337;-60
2023/03/08 03:18:28;;;;;;;20.10;18.43;;;;;;;21.37;31.25;94252.53;6129341;28;110675;-61
2023/03/08 03:21:32;;;;;;;21.47;19.60;;;;;;;21.31;31.00;94253.78;6130397;28;109288;-60
2023/03/08 03:24:37;;;;;;;19.10;17.40;;;;;;;21.37;31.22;94281.81;6135457;28;110587;-60
2023/03/08 03:27:40;;;;;;;20.23;18.43;;;;;;;21.36;30.84;94274.91;6133767;28;109365;-61
2023/03/08 03:30:43;;;;;;;20.07;18.33;;;;;;;21.35;31.25;94265.38;6124418;28;109203;-60
2023/03/08 03:33:47;;;;;;;19.10;17.50;;;;;;;21.28;30.85;94265.06;6136091;28;109009;-60
2023/03/08 03:36:50;;;;;;;18.80;17.20;;;;;;;21.22;31.19;94250.41;6135925;28;108826;-61
2023/03/08 03:39:55;;;;;;;19.30;17.67;;;;;;;21.35;30.84;94262.72;6134211;28;110020;-60
2023/03/08 03:42:58;;;;;;;18.67;17.07;;;;;;;21.34;31.15;94274.47;6125263;28;110138;-62
2023/03/08 03:46:03;;;;;;;16.93;15.53;;;;;;;21.34;30.98;94278.97;6138277;28;109980;-60
2023/03/08 03:49:06;;;;;;;17.80;16.30;;;;;;;21.33;30.68;94288.84;6133904;28;109277;-61
2023/03/08 03:52:09;;;;;;;16.83;15.43;;;;;;;21.32;31.13;94287.28;6135606;28;109305;-61
2023/03/08 03:55:14;;;;;;;15.80;14.50;;;;;;;21.35;31.23;94291.22;6145137;28;111653;-60
2023/03/08 03:58:17;;;;;;;15.83;14.53;;;;;;;21.33;31.03;94294.16;6146677;28;110040;-60
2023/03/08 04:01:23;;;;;;;16.10;14.80;;;;;;;21.34;30.87;94305.59;6145274;28;109090;-60
2023/03/08 04:04:26;;;;;;;15.40;14.10;;;;;;;21.32;30.94;94292.59;6142626;28;109782;-60
2023/03/08 04:07:29;;;;;;;15.10;13.80;;;;;;;21.32;30.79;94295.25;6137945;28;109723;-60
2023/03/08 04:10:34;;;;;;;15.00;13.70;;;;;;;21.30;31.25;94292.13;6135180;28;109462;-60
2023/03/08 04:13:38;;;;;;;14.53;13.23;;;;;;;21.32;31.25;94297.91;6143813;28;112136;-61
2023/03/08 04:16:41;;;;;;;14.60;13.30;;;;;;;21.36;31.38;94290.09;6148750;28;109286;-59
2023/03/08 04:19:44;;;;;;;13.43;12.23;;;;;;;21.33;31.83;94280.06;6134823;28;110715;-60
2023/03/08 04:22:47;;;;;;;13.10;11.80;;;;;;;21.37;32.16;94279.13;6135422;28;109109;-60
2023/03/08 04:25:52;;;;;;;13.37;12.07;;;;;;;21.38;32.49;94282.56;6155850;28;110397;-60
2023/03/08 04:28:55;;;;;;;11.77;10.67;;;;;;;21.42;32.64;94307.44;6123356;28;111314;-61
2023/03/08 04:31:59;;;;;;;14.80;11.37;;;;;;;21.30;32.76;94286.81;6138422;28;109641;-62
2023/03/08 04:35:02;;;;;;;11.53;10.47;;;;;;;21.29;33.16;94287.91;6138616;28;109472;-60
2023/03/08 04:38:05;;;;;;;11.37;10.37;;;;;;;21.39;32.91;94292.91;6132376;28;110364;-61
2023/03/08 04:41:10;;;;;;;10.83;9.83;;;;;;;21.40;33.26;94304.34;6133373;28;109646;-62
2023/03/08 04:44:14;;;;;;;11.40;10.30;;;;;;;21.43;32.82;94301.03;6137551;28;109142;-60
2023/03/08 04:47:17;;;;;;;11.13;10.10;;;;;;;21.41;32.77;94289.91;6139213;28;109361;-59
2023/03/08 04:50:20;;;;;;;11.90;10.57;;;;;;;21.39;32.80;94282.25;6127623;28;110423;-60
2023/03/08 04:53:24;;;;;;;10.77;9.77;;;;;;;21.38;32.66;94306.53;6138336;28;110267;-59
2023/03/08 04:56:28;;;;;;;10.87;9.57;;;;;;;21.37;32.79;94304.97;6138383;28;109211;-59
2023/03/08 04:59:32;;;;;;;9.00;8.00;;;;;;;21.30;31.78;94302.78;6137720;28;109048;-59
2023/03/08 05:02:35;;;;;;;9.50;8.60;;;;;;;21.23;31.74;94305.16;6127214;28;109434;-59
2023/03/08 05:05:38;;;;;;;8.30;7.50;;;;;;;21.18;31.38;94290.16;6139392;28;109078;-59
2023/03/08 05:08:41;;;;;;;5.87;5.07;;;;;;;21.18;32.18;94302.69;6137583;28;109227;-59
2023/03/08 05:11:46;;;;;;;7.23;6.00;;;;;;;21.01;31.47;94279.53;6137557;28;109558;-60
2023/03/08 05:14:49;;;;;;;6.40;5.80;;;;;;;21.35;30.94;94333.78;6128316;28;110152;-59
2023/03/08 05:17:52;;;;;;;7.40;6.70;;;;;;;21.34;30.50;94327.69;6143665;28;109857;-61
2023/03/08 05:20:56;;;;;;;6.03;5.50;;;;;;;21.38;30.45;94331.25;6139646;28;110195;-61
2023/03/08 05:24:00;;;;;;;7.60;5.60;;;;;;;21.44;30.30;94329.19;6127542;28;109379;-60
2023/03/08 05:27:04;;;;;;;6.10;5.50;;;;;;;21.48;30.78;94340.75;6138061;28;110674;-60
2023/03/08 05:30:08;;;;;;;6.57;5.87;;;;;;;21.49;30.35;94332.47;6136532;28;109652;-60
2023/03/08 05:33:12;;;;;;;7.30;6.60;;;;;;;21.52;30.36;94344.38;6113908;28;109291;-60
2023/03/08 05:36:15;;;;;;;7.57;5.90;;;;;;;21.55;30.21;94350.94;6103478;28;111728;-60
2023/03/08 05:39:19;;;;;;;5.80;5.30;;;;;;;21.56;30.36;94363.16;6112965;28;110375;-62
2023/03/08 05:42:23;;;;;;;7.57;5.40;;;;;;;21.57;30.41;94367.38;6113915;28;110288;-60
2023/03/08 05:45:26;;;;;;;6.03;5.43;;;;;;;21.56;30.23;94368.47;6113738;28;109332;-60
2023/03/08 05:48:30;;;;;;;6.20;5.40;;;;;;;21.55;29.73;94373.03;6102525;28;109048;-60
2023/03/08 05:51:33;;;;;;;5.90;5.40;;;;;;;21.52;29.81;94374.44;6113926;28;109218;-60
2023/03/08 05:54:38;;;;;;;6.23;5.63;;;;;;;21.50;29.98;94367.84;6113769;28;109266;-60
2023/03/08 05:57:42;;;;;;;8.13;5.50;;;;;;;21.51;29.90;94364.13;6108628;28;110247;-59
2023/03/08 06:00:46;;;;;;;6.63;5.67;;;;;;;21.45;29.76;94365.38;6106521;28;109217;-60
2023/03/08 06:03:50;;;;;;;5.13;4.70;;;;;;;21.44;30.09;94367.25;6113608;28;110249;-60
2023/03/08 06:06:54;;;;;;;7.63;5.10;;;;;;;21.53;30.06;94393.84;6113210;28;109489;-60
2023/03/08 06:09:57;;;;;;;9.10;5.43;;;;;;;21.54;30.14;94392.75;6102677;28;110959;-61
2023/03/08 06:13:02;;;;;;;7.50;6.50;;;;;;;21.61;30.34;94406.34;6113467;28;110287;-61
2023/03/08 06:16:06;;;;;;;9.30;7.93;;;;;;;21.72;29.83;94396.16;6113347;28;109170;-60
2023/03/08 06:19:09;;;;;;;8.33;6.73;;;;;;;21.75;30.33;94398.16;6113376;28;110095;-60
2023/03/08 06:22:15;;;;;;;9.70;8.80;;;;;;;21.75;30.49;94401.59;6102308;28;109370;-60
2023/03/08 06:25:18;;;;;;;9.40;8.27;;;;;;;21.80;29.99;94413.97;6113316;28;109156;-62
2023/03/08 06:28:25;;;;;;;11.80;10.60;;;;;;;21.72;30.07;94404.91;6113588;28;110198;-61
2023/03/08 06:31:28;;;;;;;11.83;10.73;;;;;;;21.77;30.45;94404.72;6108389;28;111305;-60
2023/03/08 06:34:32;;;;;;;12.30;11.00;;;;;;;21.86;30.34;94415.41;6107145;28;111151;-61
2023/03/08 06:37:35;;;;;;;13.67;12.20;;;;;;;21.81;30.12;94420.84;6113304;28;109091;-61
2023/03/08 06:40:38;;;;;;;14.00;12.70;;;;;;;21.77;30.55;94419.94;6112969;28;109172;-61
2023/03/08 06:43:43;;;;;;;13.50;12.20;;;;;;;21.72;30.52;94412.13;6101713;28;109193;-60
2023/03/08 06:46:46;;;;;;;13.50;12.10;;;;;;;21.71;30.92;94421.22;6112747;28;108999;-60
2023/03/08 06:49:52;;;;;;;12.10;11.00;;;;;;;21.87;30.11;94426.84;6112671;28;109339;-60
2023/03/08 06:52:55;;;;;;;12.30;11.07;;;;;;;21.99;30.31;94432.25;6113125;28;109196;-60
2023/03/08 06:56:01;;;;;;;13.00;11.80;;;;;;;22.03;30.47;94411.88;6101387;28;109035;-60
2023/03/08 06:59:06;;;;;;;12.67;11.47;;;;;;;22.14;29.98;94431.72;6112948;28;110215;-61
2023/03/08 07:02:10;;;;;;;13.60;11.50;;;;;;;22.22;30.40;94440.78;6111166;28;109137;-60
2023/03/08 07:05:13;;;;;;;14.27;12.53;;;;;;;21.93;30.56;94388.25;6112616;28;109391;-62
2023/03/08 07:08:16;;;;;;;13.50;12.20;;;;;;;22.28;30.02;94445.59;6101637;28;109235;-60
2023/03/08 07:11:19;;;;;;;14.30;12.37;;;;;;;22.20;30.49;94443.78;6112929;28;109762;-60
2023/03/08 07:14:23;;;;;;;12.97;11.73;;;;;;;22.16;30.13;94452.72;6112285;28;109302;-61
2023/03/08 07:17:27;;;;;;;14.23;11.87;;;;;;;22.09;30.63;94455.88;6105282;28;109106;-61
2023/03/08 07:20:30;;;;;;;14.10;11.90;;;;;;;22.10;30.37;94466.22;6109362;28;108877;-61
2023/03/08 07:23:33;;;;;;;11.70;10.60;;;;;;;22.07;30.39;94460.75;6112473;28;110345;-60
2023/03/08 07:26:36;;;;;;;11.87;10.70;;;;;;;22.01;30.56;94462.81;6112248;28;109332;-60
2023/03/08 07:29:41;;;;;;;12.03;10.73;;;;;;;21.97;30.95;94461.88;6101660;28;111946;-60
2023/03/08 07:32:44;;;;;;;11.80;10.70;;;;;;;21.94;30.50;94480.38;6111527;28;109579;-60
2023/03/08 07:35:48;;;;;;;12.20;10.90;;;;;;;21.90;30.63;94476.81;6112062;28;109701;-60
2023/03/08 07:38:51;;;;;;;13.13;11.83;;;;;;;21.86;30.83;94462.56;6111879;28;109048;-60
2023/03/08 07:41:54;;;;;;;14.13;11.57;;;;;;;21.76;31.10;94442.34;6100674;28;110666;-61
2023/03/08 07:44:58;;;;;;;12.03;10.67;;;;;;;21.81;31.22;94452.81;6112054;28;110439;-60
2023/03/08 07:48:02;;;;;;;11.80;10.70;;;;;;;21.79;31.28;94465.66;6111876;28;109036;-61
2023/03/08 07:51:08;;;;;;;12.33;11.13;;;;;;;21.75;31.09;94465.53;6106905;28;110104;-60
2023/03/08 07:54:11;;;;;;;11.20;10.10;;;;;;;21.75;31.08;94462.84;6106136;28;110310;-60
2023/03/08 07:57:16;;;;;;;11.63;10.43;;;;;;;21.74;31.34;94463.97;6111685;28;110116;-60
2023/03/08 08:00:21;;;;;;;10.40;9.40;;;;;;;21.75;31.40;94470.06;6111390;28;109181;-61
2023/03/08 08:03:24;;;;;;;15.93;11.00;;;;;;;21.76;33.95;94467.09;6102378;28;109523;-60
2023/03/08 08:06:28;;;;;;;16.50;11.70;;;;;;;21.76;36.66;94471.63;6114403;28;109137;-61
2023/03/08 08:09:32;;;;;;;16.23;11.97;;;;;;;21.76;38.00;94475.06;6114552;28;110154;-60
2023/03/08 08:12:35;;;;;;;14.27;10.90;;;;;;;21.76;37.97;94474.28;6114477;28;109661;-60
2023/03/08 08:15:40;;;;;;;13.00;11.37;;;;;;;21.80;37.74;94483.22;6103642;28;109250;-60
2023/03/08 08:18:43;;;;;;;12.20;10.90;;;;;;;21.84;35.65;94470.06;6114381;28;109087;-60
2023/03/08 08:21:46;;;;;;;11.93;10.47;;;;;;;21.86;36.18;94462.56;6114159;28;110184;-60
2023/03/08 08:24:49;;;;;;;12.80;10.40;;;;;;;21.90;35.87;94468.81;6114666;28;109585;-61
2023/03/08 08:27:53;;;;;;;12.93;10.47;;;;;;;21.94;35.13;94467.84;6103185;28;109004;-61
2023/03/08 08:31:00;;;;;;;12.60;10.40;;;;;;;22.00;35.04;94471.88;6114136;28;109057;-61
2023/03/08 08:34:03;;;;;;;10.70;9.10;;;;;;;22.07;34.85;94472.19;6113306;28;109418;-60
2023/03/08 08:37:06;;;;;;;10.30;8.70;;;;;;;22.17;34.50;94475.59;6104808;28;110922;-61
2023/03/08 08:40:11;;;;;;;9.73;8.83;;;;;;;22.14;34.64;94486.91;6113165;28;110216;-61
2023/03/08 08:43:14;;;;;;;11.30;9.33;;;;;;;22.13;34.89;94478.13;6113766;28;108827;-60
2023/03/08 08:46:18;;;;;;;12.53;8.70;;;;;;;22.17;34.43;94472.94;6114058;28;110239;-60
2023/03/08 08:49:22;;;;;;;11.70;8.67;;;;;;;22.09;34.64;94458.56;6102646;28;110069;-60
2023/03/08 08:52:25;;;;;;;8.50;7.70;;;;;;;22.08;34.45;94452.44;6113474;28;109071;-59
2023/03/08 08:55:28;;;;;;;8.60;7.70;;;;;;;22.19;34.56;94476.09;6113895;28;109284;-60
2023/03/08 08:58:31;;;;;;;9.30;7.37;;;;;;;22.11;34.34;94475.78;6113278;28;108824;-62
2023/03/08 09:01:38;;;;;;;9.33;7.80;;;;;;;22.07;33.60;94471.41;6058156;28;1279288;-60
2023/03/08 09:04:42;;;;;;;9.40;7.00;;;;;;;21.93;34.08;94458.28;6113996;28;109328;-60
2023/03/08 09:07:45;;;;;;;7.97;6.73;;;;;;;21.91;33.60;94459.72;6114486;28;109555;-60
2023/03/08 09:10:48;;;;;;;6.43;5.80;;;;;;;21.97;33.11;94483.19;6109592;28;109999;-60
2023/03/08 09:13:52;;;;;;;9.13;7.10;;;;;;;21.95;33.11;94479.28;6108573;28;109334;-60
2023/03/08 09:16:57;;;;;;;9.90;6.77;;;;;;;21.92;33.04;94475.38;6114664;28;109135;-60
2023/03/08 09:20:00;;;;;;;7.50;6.80;;;;;;;21.90;32.85;94466.94;6115030;28;109084;-59
2023/03/08 09:23:03;;;;;;;8.70;6.20;;;;;;;21.89;32.84;94470.69;6103383;28;109951;-61
2023/03/08 09:26:24;;;;;;;6.87;6.10;;;;;;;21.88;33.07;94469.13;6111168;28;108714;-61
2023/03/08 09:29:27;;;;;;;6.93;6.33;;;;;;;21.89;32.80;94475.25;6114435;28;109118;-61
2023/03/08 09:32:32;;;;;;;8.33;7.03;;;;;;;21.81;32.70;94450.94;6114687;28;110941;-61
2023/03/08 09:35:36;;;;;;;6.90;6.17;;;;;;;21.89;32.68;94457.38;6102339;28;110640;-61
2023/03/08 09:38:39;;;;;;;7.23;6.53;;;;;;;21.93;32.63;94455.63;6114199;28;109093;-61
2023/03/08 09:41:49;;;;;;;9.43;8.53;;;;;;;21.84;32.93;94436.22;6114078;28;110017;-61
2023/03/08 09:45:06;;;;;;;6.97;6.37;;;;;;;21.94;32.48;94451.88;6108746;28;110168;-62
2023/03/08 09:48:17;;;;;;;8.17;7.10;;;;;;;21.96;32.55;94447.00;6109091;28;109124;-61
2023/03/08 09:51:24;;;;;;;7.20;6.57;;;;;;;21.98;32.67;94452.78;6114008;28;109068;-61
2023/03/08 09:54:28;;;;;;;7.37;6.60;;;;;;;21.99;32.60;94443.69;6113918;28;109302;-61
2023/03/08 09:57:36;;;;;;;7.90;7.20;;;;;;;22.02;32.50;94431.63;6103648;28;110186;-60
2023/03/08 10:00:42;;;;;;;8.27;7.57;;;;;;;22.03;32.63;94436.63;6112923;28;110287;-61
2023/03/08 10:04:10;;;;;;;8.40;7.60;;;;;;;22.02;32.42;94437.75;6113630;28;110002;-60
2023/03/08 10:07:33;;;;;;;8.70;7.90;;;;;;;22.03;32.30;94433.97;6112429;28;108806;-62
2023/03/08 10:10:48;;;;;;;8.43;7.53;;;;;;;22.03;32.45;94431.31;6107276;28;109173;-62
2023/03/08 10:13:54;;;;;;;8.77;7.87;;;;;;;22.07;32.82;94428.78;6113701;28;110244;-61
2023/03/08 10:17:03;;;;;;;7.90;7.10;;;;;;;22.06;32.36;94433.34;6113423;28;108979;-62
2023/03/08 10:20:18;;;;;;;7.87;7.07;;;;;;;22.08;32.19;94417.03;6101996;28;109118;-60
2023/03/08 10:23:23;;;;;;;7.70;7.00;;;;;;;22.07;32.40;94418.91;6113026;28;109093;-62
2023/03/08 10:26:27;;;;;;;7.80;7.00;;;;;;;22.07;32.48;94418.91;6113084;28;109649;-62
2023/03/08 10:29:30;;;;;;;7.13;6.53;;;;;;;22.08;32.15;94417.03;6113398;28;109095;-60
2023/03/08 10:32:42;;;;;;;7.33;6.73;;;;;;;22.09;32.68;94411.38;6102040;28;110671;-61
2023/03/08 10:36:00;;;;;;;7.70;6.67;;;;;;;22.09;32.12;94421.25;6112977;28;109197;-61
2023/03/08 10:39:07;;;;;;;7.70;6.97;;;;;;;22.09;32.42;94411.38;6112355;28;109305;-60
2023/03/08 10:42:15;;;;;;;7.80;6.60;;;;;;;22.09;32.35;94413.25;6102638;28;110083;-63
2023/03/08 10:45:21;;;;;;;6.70;6.00;;;;;;;22.06;32.23;94406.69;6112582;28;109227;-60
2023/03/08 10:48:24;;;;;;;7.57;6.23;;;;;;;22.05;32.05;94402.47;6112755;28;108830;-60
2023/03/08 10:51:29;;;;;;;6.73;5.83;;;;;;;22.03;32.60;94398.56;6112687;28;109070;-60
2023/03/08 10:54:32;;;;;;;7.67;6.87;;;;;;;22.03;32.50;94396.69;6101453;28;110211;-60
2023/03/08 10:57:36;;;;;;;7.00;6.30;;;;;;;22.03;32.05;94385.25;6112765;28;109242;-60
2023/03/08 11:00:43;;;;;;;7.03;6.30;;;;;;;22.02;32.16;94389.78;6112094;28;109170;-59
2023/03/08 11:03:46;;;;;;;7.37;6.67;;;;;;;22.00;32.40;94386.63;6112636;28;110431;-62
2023/03/08 11:06:51;;;;;;;6.57;6.07;;;;;;;21.98;32.59;94380.06;6101270;28;109059;-60
2023/03/08 11:10:14;;;;;;;6.77;6.07;;;;;;;21.98;32.33;94380.84;6111737;28;109473;-60
2023/03/08 11:13:26;;;;;;;6.60;6.00;;;;;;;21.97;32.59;94370.53;6112389;28;109145;-61
2023/03/08 11:17:02;;;;;;;6.40;5.80;;;;;;;21.98;32.43;94366.75;6102136;28;109247;-61
2023/03/08 11:20:16;;;;;;;6.37;5.83;;;;;;;21.96;32.47;94366.28;6110384;28;108949;-60
2023/03/08 11:23:26;;;;;;;6.80;5.77;;;;;;;21.95;32.60;94357.53;6112137;28;110062;-61
2023/03/08 11:26:37;;;;;;;7.10;5.43;;;;;;;21.93;32.14;94351.75;6112409;28;109355;-60
2023/03/08 11:29:53;;;;;;;7.60;5.90;;;;;;;21.90;32.40;94344.41;6102029;28;110989;-60
2023/03/08 11:33:22;;;;;;;7.50;6.80;;;;;;;21.75;32.38;94305.75;6112550;28;109151;-60
2023/03/08 11:36:30;;;;;;;5.63;5.10;;;;;;;21.94;32.19;94328.53;6113191;28;109063;-60
2023/03/08 11:39:40;;;;;;;6.37;5.77;;;;;;;21.94;32.45;94321.34;6105276;28;109249;-61
2023/03/08 11:42:53;;;;;;;6.37;5.77;;;;;;;21.94;32.12;94312.56;6115326;28;109485;-60
2023/03/08 11:46:02;;;;;;;6.73;5.63;;;;;;;21.94;32.41;94318.66;6115985;28;109382;-61
2023/03/08 11:49:27;;;;;;;6.83;6.23;;;;;;;21.92;31.86;94309.44;6116083;28;108988;-60
2023/03/08 11:52:38;;;;;;;6.27;5.70;;;;;;;21.93;32.51;94314.44;6105859;28;109237;-60
2023/03/08 11:56:33;;;;;;;5.73;5.23;;;;;;;21.93;32.12;94308.34;6116003;28;110203;-61
2023/03/08 11:59:40;;;;;;;6.73;6.13;;;;;;;21.93;32.34;94306.44;6110961;28;109275;-62
2023/03/08 12:02:47;;;;;;;6.20;5.67;;;;;;;21.92;32.13;94304.91;6100786;28;109368;-61
2023/03/08 12:05:54;;;;;;;5.60;5.10;;;;;;;21.90;32.32;94296.44;6115932;28;109597;-61
2023/03/08 12:09:03;;;;;;;5.73;5.30;;;;;;;21.91;32.65;94297.22;6115743;28;109032;-60
2023/03/08 12:12:14;;;;;;;5.80;5.30;;;;;;;21.84;32.05;94273.75;6115951;28;109030;-60
2023/03/08 12:15:27;;;;;;;5.20;4.80;;;;;;;21.89;32.20;94284.22;6104858;28;109205;-58
2023/03/08 12:18:36;;;;;;;5.93;4.90;;;;;;;21.90;32.42;94285.78;6115712;28;109062;-59
2023/03/08 12:21:46;;;;;;;5.70;5.20;;;;;;;21.79;32.62;94282.69;6116056;28;109198;-60
2023/03/08 12:24:57;;;;;;;5.73;5.23;;;;;;;21.90;32.20;94285.78;6104049;28;109272;-58
2023/03/08 12:28:06;;;;;;;5.37;4.87;;;;;;;21.78;32.38;94259.03;6115666;28;110196;-58
2023/03/08 12:31:27;;;;;;;5.30;4.80;;;;;;;21.94;32.03;94292.03;6115745;28;110114;-58
2023/03/08 12:34:38;;;;;;;6.00;5.50;;;;;;;21.97;32.45;94286.06;6115329;28;110745;-60
2023/03/08 12:37:42;;;;;;;5.17;4.67;;;;;;;21.98;32.44;94281.50;6103944;28;109113;-59
2023/03/08 12:40:47;;;;;;;5.83;5.23;;;;;;;21.92;32.23;94274.81;6115091;28;109225;-58
2023/03/08 12:44:01;;;;;;;5.13;4.63;;;;;;;21.96;32.36;94281.81;6114283;28;109083;-58
2023/03/08 12:47:20;;;;;;;5.63;5.13;;;;;;;21.92;32.21;94278.25;6130230;28;109965;-58
2023/03/08 12:50:24;;;;;;;5.93;4.83;;;;;;;21.93;32.04;94273.72;6138949;28;109237;-59
2023/03/08 12:53:41;;;;;;;5.73;5.13;;;;;;;21.94;32.22;94276.03;6139162;28;109080;-62
2023/03/08 12:56:51;;;;;;;5.20;4.80;;;;;;;21.94;32.54;94268.06;6139339;28;109216;-58
2023/03/08 12:59:59;;;;;;;4.77;4.37;;;;;;;21.94;32.38;94260.06;6127851;28;110221;-58
2023/03/08 13:03:05;;;;;;;5.03;4.63;;;;;;;21.90;32.36;94258.38;6139310;28;109781;-58
2023/03/08 13:06:30;;;;;;;4.77;4.23;;;;;;;21.82;32.15;94244.00;6139597;28;109108;-58
2023/03/08 13:09:38;;;;;;;4.70;4.30;;;;;;;21.89;32.08;94246.94;6134151;28;109350;-59
2023/03/08 13:12:58;;;;;;;4.70;4.30;;;;;;;21.89;32.15;94252.28;6133171;28;109016;-59
2023/03/08 13:16:31;;;;;;;4.43;4.07;;;;;;;21.89;32.11;94256.81;6139476;28;109078;-59
2023/03/08 13:19:36;;;;;;;4.70;4.27;;;;;;;21.90;32.50;94243.19;6138525;28;109431;-58
2023/03/08 13:22:49;;;;;;;4.63;4.23;;;;;;;21.89;32.04;94252.28;6128202;28;110163;-58
2023/03/08 13:26:04;;;;;;;5.07;4.40;;;;;;;21.87;32.53;94248.38;6138576;28;109019;-59
2023/03/08 13:29:14;;;;;;;4.60;4.17;;;;;;;21.88;32.00;94245.38;6138442;28;109381;-58
2023/03/08 13:32:23;;;;;;;4.60;4.20;;;;;;;21.88;32.16;94244.59;6133475;28;109042;-59
2023/03/08 13:35:27;;;;;;;4.80;4.40;;;;;;;21.80;32.09;94230.19;6132873;28;109070;-58
2023/03/08 13:38:32;;;;;;;4.33;3.90;;;;;;;21.88;32.57;94247.28;6138651;28;110114;-59
2023/03/08 13:41:37;;;;;;;4.40;4.00;;;;;;;21.88;32.25;94241.94;6138532;28;109701;-59
2023/03/08 13:44:40;;;;;;;3.90;3.60;;;;;;;21.87;32.05;94241.16;6127281;28;110314;-57
2023/03/08 13:47:46;;;;;;;3.97;3.57;;;;;;;21.85;32.02;94239.94;6138083;28;109399;-59
2023/03/08 13:50:51;;;;;;;4.60;4.20;;;;;;;21.74;32.64;94212.84;6138002;28;109015;-59
2023/03/08 13:53:55;;;;;;;4.43;4.03;;;;;;;21.85;32.18;94235.38;6137949;28;109157;-59
2023/03/08 13:57:01;;;;;;;4.03;3.67;;;;;;;21.86;32.54;94238.81;6126484;28;110067;-59
2023/03/08 14:00:24;;;;;;;4.40;4.00;;;;;;;21.85;32.46;94232.72;6136879;28;109026;-59
2023/03/08 14:03:30;;;;;;;4.10;3.80;;;;;;;21.85;32.45;94229.28;6137657;28;111382;-58
2023/03/08 14:06:35;;;;;;;4.77;3.93;;;;;;;21.81;32.42;94232.53;6131403;28;109942;-58
2023/03/08 14:09:38;;;;;;;4.70;3.90;;;;;;;21.84;32.29;94233.78;6135317;28;109151;-58
2023/03/08 14:12:44;;;;;;;4.37;3.97;;;;;;;21.84;32.41;94225.81;6125653;28;108931;-58
2023/03/08 14:15:53;;;;;;;4.17;3.87;;;;;;;21.83;32.23;94232.25;6113662;28;109821;-60